Time;durP1;ratioP1;P1;durP2;ratioP2;P2;SDS_P1;SDS_P2;PMS_P1;PMS_P2;Temp;Humidity;BMP_temperature;BMP_pressure;BME280_temperature;BME280_humidity;BME280_pressure;Samples;Min_cycle;Max_cycle;Signal;HPM_P1;HPM_P2
2023/01/16 00:00:08;;;;;;;1.85;0.85;;;9.20;67.90;;;;;;5029520;28;20034;-51
2023/01/16 00:02:34;;;;;;;2.13;1.00;;;9.10;67.90;;;;;;5025717;28;20100;-54
2023/01/16 00:05:07;;;;;;;2.72;0.77;;;9.10;67.80;;;;;;5004964;28;20512;-52
2023/01/16 00:07:36;;;;;;;1.30;0.80;;;9.00;67.80;;;;;;5029940;28;20049;-54
2023/01/16 00:10:04;;;;;;;3.85;1.38;;;9.00;68.00;;;;;;5021907;28;20037;-52
2023/01/16 00:12:31;;;;;;;3.10;0.98;;;9.00;68.20;;;;;;5024695;28;20065;-52
2023/01/16 00:14:57;;;;;;;3.25;1.30;;;9.00;68.50;;;;;;5028722;28;20041;-52
2023/01/16 00:17:24;;;;;;;1.80;0.73;;;9.00;68.50;;;;;;5031132;28;20464;-52
2023/01/16 00:19:51;;;;;;;4.03;1.20;;;9.00;68.50;;;;;;5030485;28;20037;-52
2023/01/16 00:22:23;;;;;;;1.00;0.77;;;8.90;68.40;;;;;;5025871;28;20033;-52
2023/01/16 00:24:51;;;;;;;1.60;0.70;;;9.00;68.50;;;;;;5028669;28;20118;-48
2023/01/16 00:27:18;;;;;;;4.05;0.70;;;8.90;68.40;;;;;;5031532;28;20037;-53
2023/01/16 00:29:47;;;;;;;3.17;1.30;;;8.90;68.40;;;;;;5030414;28;20055;-51
2023/01/16 00:32:20;;;;;;;3.13;1.08;;;8.90;68.40;;;;;;5025602;28;20075;-52
2023/01/16 00:34:51;;;;;;;2.40;0.88;;;8.90;68.40;;;;;;5022308;28;20065;-51
2023/01/16 00:37:18;;;;;;;2.40;0.90;;;8.90;68.40;;;;;;5011508;28;20047;-53
2023/01/16 00:39:47;;;;;;;2.47;1.13;;;8.90;68.70;;;;;;5025395;28;20041;-52
2023/01/16 00:42:14;;;;;;;2.03;1.23;;;8.80;68.90;;;;;;5029357;28;20041;-54
2023/01/16 00:44:46;;;;;;;1.65;1.10;;;8.90;69.00;;;;;;5029505;28;20452;-52
2023/01/16 00:47:15;;;;;;;1.88;0.85;;;8.80;69.00;;;;;;5027158;28;20056;-52
2023/01/16 00:49:45;;;;;;;4.05;1.48;;;8.90;69.00;;;;;;5011236;28;20129;-52
2023/01/16 00:52:17;;;;;;;2.40;0.90;;;8.90;69.10;;;;;;5024103;28;20116;-51
2023/01/16 00:54:44;;;;;;;3.85;1.08;;;8.90;69.10;;;;;;5030111;28;20498;-51
2023/01/16 00:57:11;;;;;;;2.25;1.05;;;8.90;69.10;;;;;;5028452;28;20053;-53
2023/01/16 00:59:38;;;;;;;3.53;0.77;;;8.90;69.10;;;;;;5027383;28;20107;-51
2023/01/16 01:02:07;;;;;;;2.75;1.40;;;9.00;69.00;;;;;;5030187;28;20029;-50
2023/01/16 01:04:35;;;;;;;2.40;1.10;;;9.00;68.80;;;;;;5029498;28;20051;-48
2023/01/16 01:07:01;;;;;;;5.30;1.48;;;8.90;68.50;;;;;;5027722;28;20038;-52
2023/01/16 01:09:28;;;;;;;3.25;1.33;;;8.90;68.40;;;;;;5020167;28;20033;-50
2023/01/16 01:11:58;;;;;;;1.83;0.45;;;9.00;68.50;;;;;;5035292;28;20052;-52
2023/01/16 01:14:28;;;;;;;1.83;0.70;;;8.90;68.40;;;;;;5029881;28;20051;-53
2023/01/16 01:16:58;;;;;;;1.70;1.20;;;9.00;68.50;;;;;;5026908;28;20099;-50
2023/01/16 01:19:24;;;;;;;3.75;0.93;;;9.00;68.50;;;;;;5029271;28;20540;-51
2023/01/16 01:21:53;;;;;;;2.70;1.08;;;9.00;68.50;;;;;;5028501;28;20119;-53
2023/01/16 01:24:23;;;;;;;3.25;1.17;;;9.00;68.40;;;;;;5029074;28;20037;-50
2023/01/16 01:26:50;;;;;;;2.55;0.70;;;9.00;68.50;;;;;;5019849;28;20048;-51
2023/01/16 01:29:17;;;;;;;1.80;0.90;;;9.00;68.30;;;;;;5025750;28;20065;-50
2023/01/16 01:31:43;;;;;;;2.83;1.92;;;9.00;68.20;;;;;;5029266;28;20567;-52
2023/01/16 01:34:10;;;;;;;3.35;1.38;;;9.00;68.10;;;;;;5027086;28;20095;-49
2023/01/16 01:36:37;;;;;;;6.15;1.08;;;9.00;68.20;;;;;;5027285;28;20053;-52
2023/01/16 01:39:06;;;;;;;4.38;1.17;;;9.00;68.20;;;;;;5024617;28;20044;-52
2023/01/16 01:41:41;;;;;;;2.85;0.93;;;9.00;68.20;;;;;;5029326;28;20091;-52
2023/01/16 01:44:42;;;;;;;2.80;0.90;;;9.00;68.40;;;;;;5028286;28;20116;-53
2023/01/16 01:47:12;;;;;;;2.20;1.00;;;9.00;68.40;;;;;;5024401;28;20080;-51
2023/01/16 01:49:39;;;;;;;3.65;1.33;;;9.00;68.50;;;;;;5028167;28;20100;-52
2023/01/16 01:52:07;;;;;;;3.05;0.88;;;8.90;68.40;;;;;;5029261;28;20037;-48
2023/01/16 01:54:42;;;;;;;1.35;0.70;;;9.00;68.50;;;;;;5023986;28;20045;-51
2023/01/16 01:57:17;;;;;;;4.05;0.95;;;9.00;68.60;;;;;;5024485;28;20072;-52
2023/01/16 01:59:58;;;;;;;2.97;0.88;;;8.90;68.50;;;;;;5028563;28;20045;-51
2023/01/16 02:02:43;;;;;;;4.22;1.23;;;9.00;69.10;;;;;;5026493;28;20046;-53
2023/01/16 02:05:12;;;;;;;2.58;0.80;;;9.00;68.50;;;;;;5020161;28;20033;-52
2023/01/16 02:07:44;;;;;;;4.55;1.05;;;9.00;68.30;;;;;;5029539;28;20597;-50
2023/01/16 02:10:39;;;;;;;1.98;0.70;;;8.90;68.10;;;;;;5028058;28;20521;-50
2023/01/16 02:13:10;;;;;;;1.92;0.90;;;8.90;68.20;;;;;;5024756;28;20116;-52
2023/01/16 02:19:14;;;;;;;2.60;0.80;;;8.80;68.00;;;;;;5027545;28;20049;-52
2023/01/16 02:22:00;;;;;;;4.05;0.93;;;8.80;68.10;;;;;;5023127;28;20509;-51
2023/01/16 02:25:04;;;;;;;1.70;0.80;;;8.70;68.20;;;;;;5007276;28;20145;-51
2023/01/16 02:27:53;;;;;;;5.57;0.88;;;8.60;68.30;;;;;;5029658;28;20045;-52
2023/01/16 02:30:23;;;;;;;3.47;0.63;;;8.60;68.30;;;;;;5028011;28;20042;-52
2023/01/16 02:33:02;;;;;;;2.90;0.63;;;8.50;68.20;;;;;;5022778;28;20061;-50
2023/01/16 02:35:50;;;;;;;1.02;0.63;;;8.40;68.30;;;;;;5028169;28;20124;-51
2023/01/16 02:38:28;;;;;;;1.60;1.00;;;8.40;68.50;;;;;;5020607;28;20490;-51
2023/01/16 02:41:16;;;;;;;2.28;0.82;;;8.30;68.40;;;;;;5027341;28;20573;-53
2023/01/16 02:43:59;;;;;;;3.00;0.90;;;8.30;68.60;;;;;;5015595;28;20124;-54
2023/01/16 02:46:39;;;;;;;3.50;1.10;;;8.30;68.80;;;;;;5028553;28;20041;-52
2023/01/16 02:49:12;;;;;;;0.80;0.80;;;8.20;68.80;;;;;;5004847;28;20125;-54
2023/01/16 02:52:05;;;;;;;1.33;0.70;;;8.20;68.80;;;;;;5030657;28;20612;-53
2023/01/16 02:54:49;;;;;;;2.78;1.13;;;8.10;68.90;;;;;;4986565;28;20057;-53
2023/01/16 02:57:18;;;;;;;1.60;0.70;;;8.10;69.10;;;;;;5033307;28;20387;-51
2023/01/16 02:59:47;;;;;;;3.60;1.02;;;8.00;69.00;;;;;;5024972;28;20042;-53
2023/01/16 03:02:17;;;;;;;3.28;0.93;;;8.00;69.00;;;;;;5029065;28;20038;-52
2023/01/16 03:04:51;;;;;;;2.10;0.95;;;8.00;69.10;;;;;;5031860;28;20037;-52
2023/01/16 03:07:47;;;;;;;2.40;1.27;;;8.00;69.20;;;;;;5032924;28;20061;-51
2023/01/16 03:10:46;;;;;;;4.03;1.05;;;7.90;69.30;;;;;;5025062;28;20437;-52
2023/01/16 03:13:38;;;;;;;2.00;1.23;;;7.90;69.30;;;;;;5038726;28;20059;-52
2023/01/16 03:16:32;;;;;;;1.85;0.60;;;7.90;69.50;;;;;;5024718;28;20072;-51
2023/01/16 03:19:17;;;;;;;3.08;1.25;;;7.80;69.50;;;;;;5027990;28;20041;-52
2023/01/16 03:22:03;;;;;;;3.60;1.13;;;7.80;69.70;;;;;;5029207;28;20535;-52
2023/01/16 03:24:42;;;;;;;2.10;0.57;;;7.80;69.70;;;;;;5032345;28;20051;-54
2023/01/16 03:27:15;;;;;;;1.95;0.70;;;7.80;69.80;;;;;;5024768;28;20076;-53
2023/01/16 03:29:56;;;;;;;1.02;0.50;;;7.80;69.70;;;;;;5007306;28;20520;-52
2023/01/16 03:32:37;;;;;;;1.40;0.60;;;7.80;69.80;;;;;;5026766;28;20633;-51
2023/01/16 03:35:17;;;;;;;1.15;0.50;;;7.80;69.90;;;;;;5024580;28;20128;-53
2023/01/16 03:37:51;;;;;;;1.00;0.57;;;7.80;70.10;;;;;;5024728;28;20041;-52
2023/01/16 03:40:27;;;;;;;1.35;0.68;;;7.80;70.00;;;;;;5025834;28;20057;-48
2023/01/16 03:43:05;;;;;;;2.88;0.68;;;7.80;70.00;;;;;;5031619;28;20521;-52
2023/01/16 03:46:06;;;;;;;2.22;0.82;;;7.80;70.20;;;;;;5031736;28;20051;-52
2023/01/16 03:48:52;;;;;;;2.35;0.95;;;7.80;70.30;;;;;;5029974;28;20441;-50
2023/01/16 03:51:24;;;;;;;2.25;0.82;;;7.80;70.00;;;;;;5025821;28;20037;-52
2023/01/16 03:54:29;;;;;;;1.40;0.80;;;7.80;69.90;;;;;;5031997;28;20048;-50
2023/01/16 03:57:10;;;;;;;0.63;0.63;;;7.80;70.10;;;;;;4947980;28;20445;-50
2023/01/16 03:59:39;;;;;;;2.20;0.90;;;7.90;70.10;;;;;;5027254;28;20044;-48
2023/01/16 04:02:17;;;;;;;1.65;0.40;;;7.90;69.90;;;;;;5023598;28;20053;-51
2023/01/16 04:04:57;;;;;;;3.83;1.52;;;7.80;70.00;;;;;;5030764;28;20433;-52
2023/01/16 04:07:38;;;;;;;3.78;0.65;;;7.90;70.00;;;;;;5028878;28;20108;-51
2023/01/16 04:10:10;;;;;;;1.23;0.60;;;7.90;70.00;;;;;;5005006;28;20252;-50
2023/01/16 04:12:42;;;;;;;2.03;0.68;;;7.90;70.00;;;;;;5037855;28;20433;-51
2023/01/16 04:15:12;;;;;;;2.10;0.70;;;7.90;70.00;;;;;;5017229;28;20067;-52
2023/01/16 04:17:40;;;;;;;1.42;0.50;;;7.80;70.00;;;;;;5028213;28;20073;-51
2023/01/16 04:20:10;;;;;;;3.00;0.88;;;7.90;70.00;;;;;;5030721;28;20533;-52
2023/01/16 04:22:40;;;;;;;0.75;0.43;;;7.90;69.90;;;;;;5029985;28;20043;-51
2023/01/16 04:25:09;;;;;;;4.22;1.02;;;7.90;70.00;;;;;;5023866;28;20033;-50
2023/01/16 04:27:38;;;;;;;0.75;0.52;;;7.90;70.00;;;;;;5030780;28;20054;-50
2023/01/16 04:30:06;;;;;;;1.17;0.38;;;7.90;70.10;;;;;;5030622;28;20055;-51
2023/01/16 04:32:35;;;;;;;3.47;0.45;;;7.90;70.10;;;;;;5010180;28;20147;-52
2023/01/16 04:35:02;;;;;;;1.45;0.70;;;7.90;70.10;;;;;;5024676;28;20052;-52
2023/01/16 04:37:31;;;;;;;1.58;0.50;;;8.00;70.10;;;;;;5031351;28;20553;-52
2023/01/16 04:40:02;;;;;;;2.83;0.80;;;7.90;70.00;;;;;;5026223;28;20048;-51
2023/01/16 04:42:29;;;;;;;3.55;0.77;;;8.00;70.00;;;;;;5031362;28;20065;-52
2023/01/16 04:44:59;;;;;;;2.20;0.82;;;8.00;70.00;;;;;;5030540;28;20052;-52
2023/01/16 04:47:26;;;;;;;3.45;0.88;;;8.00;70.00;;;;;;5028845;28;20041;-50
2023/01/16 04:49:55;;;;;;;3.30;0.60;;;8.00;69.90;;;;;;5028414;28;20066;-50
2023/01/16 04:52:22;;;;;;;2.47;0.70;;;8.00;69.90;;;;;;5031314;28;20077;-52
2023/01/16 04:54:48;;;;;;;6.35;0.90;;;8.00;69.80;;;;;;5004207;28;20530;-52
2023/01/16 04:57:16;;;;;;;2.10;0.80;;;8.10;69.80;;;;;;5031015;28;20037;-50
2023/01/16 04:59:43;;;;;;;2.22;0.60;;;8.10;69.70;;;;;;5030648;28;20050;-50
2023/01/16 05:02:12;;;;;;;3.63;0.70;;;8.10;69.70;;;;;;5027036;28;20048;-54
2023/01/16 05:04:40;;;;;;;1.52;0.47;;;8.10;69.60;;;;;;5027302;28;20072;-55
2023/01/16 05:07:06;;;;;;;1.48;0.50;;;8.10;69.50;;;;;;5030371;28;20494;-53
2023/01/16 05:09:34;;;;;;;1.00;0.38;;;8.10;69.50;;;;;;5030596;28;20056;-53
2023/01/16 05:12:03;;;;;;;1.95;0.35;;;8.10;69.40;;;;;;5025534;28;20077;-51
2023/01/16 05:14:29;;;;;;;1.65;0.45;;;8.20;69.50;;;;;;5026550;28;20410;-50
2023/01/16 05:17:01;;;;;;;1.95;0.20;;;8.10;69.40;;;;;;5030289;28;20105;-54
2023/01/16 05:19:27;;;;;;;3.72;0.77;;;8.20;69.50;;;;;;5027437;28;20569;-52
2023/01/16 05:21:59;;;;;;;1.27;0.25;;;8.20;69.50;;;;;;5028075;28;20092;-56
2023/01/16 05:24:25;;;;;;;3.15;0.82;;;8.20;69.50;;;;;;5028747;28;20075;-52
2023/01/16 05:26:52;;;;;;;2.20;0.70;;;8.20;69.60;;;;;;5028400;28;20064;-55
2023/01/16 05:29:18;;;;;;;3.15;1.33;;;8.20;69.60;;;;;;5027358;28;20128;-56
2023/01/16 05:31:45;;;;;;;3.50;1.65;;;8.30;69.60;;;;;;5020806;28;20073;-51
2023/01/16 05:34:12;;;;;;;3.78;1.15;;;8.30;69.70;;;;;;5022130;28;20072;-55
2023/01/16 05:36:39;;;;;;;2.67;1.15;;;8.30;69.70;;;;;;5029762;28;20050;-53
2023/01/16 05:39:05;;;;;;;3.78;1.00;;;8.30;69.70;;;;;;5023482;28;20042;-54
2023/01/16 05:41:32;;;;;;;4.95;1.20;;;8.30;69.60;;;;;;5024566;28;20490;-53
2023/01/16 05:43:58;;;;;;;2.72;0.63;;;8.40;69.50;;;;;;5022699;28;20116;-54
2023/01/16 05:46:25;;;;;;;2.33;0.70;;;8.40;69.50;;;;;;5020836;28;20041;-52
2023/01/16 05:48:52;;;;;;;1.88;0.82;;;8.40;69.40;;;;;;5005601;28;20053;-52
2023/01/16 05:51:18;;;;;;;1.63;0.63;;;8.40;69.30;;;;;;5021879;28;20041;-53
2023/01/16 05:53:51;;;;;;;2.15;0.77;;;8.40;69.20;;;;;;5020650;28;20053;-57
2023/01/16 05:56:21;;;;;;;1.60;0.80;;;8.50;69.20;;;;;;5022241;28;20041;-51
2023/01/16 05:58:48;;;;;;;1.80;0.70;;;8.50;69.20;;;;;;5023794;28;20069;-54
2023/01/16 06:01:15;;;;;;;4.15;0.85;;;8.50;69.20;;;;;;5028731;28;20820;-54
2023/01/16 06:03:42;;;;;;;3.72;1.17;;;8.50;69.20;;;;;;5029939;28;20060;-54
2023/01/16 06:06:08;;;;;;;0.98;0.50;;;8.50;69.20;;;;;;5026061;28;20037;-55
2023/01/16 06:08:35;;;;;;;0.75;0.47;;;8.50;69.20;;;;;;5023369;28;20033;-55
2023/01/16 06:11:02;;;;;;;1.48;0.63;;;8.50;69.20;;;;;;5028319;28;20049;-53
2023/01/16 06:13:30;;;;;;;1.85;0.43;;;8.60;69.30;;;;;;5034843;28;20038;-52
2023/01/16 06:15:59;;;;;;;1.33;0.52;;;8.50;69.20;;;;;;5028809;28;20073;-54
2023/01/16 06:18:29;;;;;;;1.05;0.77;;;8.60;69.20;;;;;;5027233;28;20048;-53
2023/01/16 06:20:55;;;;;;;2.83;0.60;;;8.60;69.10;;;;;;5027969;28;20053;-55
2023/01/16 06:23:22;;;;;;;1.02;0.60;;;8.60;69.10;;;;;;5029102;28;20042;-54
2023/01/16 06:25:49;;;;;;;1.67;0.50;;;8.60;69.00;;;;;;5027678;28;20544;-56
2023/01/16 06:28:16;;;;;;;1.80;0.60;;;8.70;69.00;;;;;;5024675;28;20041;-54
2023/01/16 06:30:43;;;;;;;2.30;0.45;;;8.70;68.90;;;;;;5010258;28;20601;-54
2023/01/16 06:33:10;;;;;;;2.95;0.50;;;8.70;68.90;;;;;;5009913;28;20116;-54
2023/01/16 06:35:36;;;;;;;2.00;0.50;;;8.70;68.90;;;;;;5025883;28;20054;-55
2023/01/16 06:38:03;;;;;;;0.75;0.30;;;8.70;69.00;;;;;;5019887;28;20133;-56
2023/01/16 06:40:29;;;;;;;0.88;0.35;;;8.70;69.00;;;;;;5023536;28;20143;-55
2023/01/16 06:42:56;;;;;;;0.85;0.30;;;8.80;69.00;;;;;;5021396;28;20653;-55
2023/01/16 06:45:24;;;;;;;2.20;0.47;;;8.80;68.90;;;;;;5023998;28;20590;-56
2023/01/16 06:47:52;;;;;;;1.02;0.60;;;8.80;68.80;;;;;;5008896;28;20057;-51
2023/01/16 06:50:19;;;;;;;0.85;0.35;;;8.80;68.80;;;;;;5006609;28;20041;-55
2023/01/16 06:52:45;;;;;;;3.55;0.50;;;8.80;68.60;;;;;;5027585;28;20670;-56
2023/01/16 06:55:13;;;;;;;0.70;0.30;;;8.80;68.60;;;;;;5022282;28;20514;-54
2023/01/16 06:57:44;;;;;;;0.63;0.30;;;8.80;68.60;;;;;;5026824;28;20072;-55
2023/01/16 07:00:14;;;;;;;2.30;0.77;;;8.80;68.70;;;;;;5026942;28;20046;-54
2023/01/16 07:02:40;;;;;;;0.88;0.22;;;8.80;68.60;;;;;;5027277;28;20049;-54
2023/01/16 07:05:09;;;;;;;2.25;0.60;;;8.80;69.20;;;;;;5017922;28;20506;-55
2023/01/16 07:07:36;;;;;;;1.65;0.57;;;8.90;68.60;;;;;;5010614;28;20460;-55
2023/01/16 07:10:03;;;;;;;1.27;0.60;;;8.90;68.70;;;;;;5026646;28;20049;-55
2023/01/16 07:12:31;;;;;;;1.92;0.50;;;8.90;68.80;;;;;;5026334;28;20042;-54
2023/01/16 07:23:29;;;;;;;1.98;0.55;;;8.90;68.80;;;;;;5013491;28;20589;-50
2023/01/16 07:25:58;;;;;;;1.55;0.60;;;9.00;69.20;;;;;;5024319;28;20040;-54
2023/01/16 07:28:25;;;;;;;1.23;0.70;;;9.00;69.20;;;;;;5027597;28;20043;-55
2023/01/16 07:30:52;;;;;;;0.63;0.38;;;8.90;69.30;;;;;;5028926;28;20049;-54
2023/01/16 07:33:18;;;;;;;2.30;0.82;;;8.90;69.50;;;;;;5022639;28;20498;-54
2023/01/16 07:35:45;;;;;;;3.53;0.88;;;9.00;69.50;;;;;;5030579;28;20049;-51
2023/01/16 07:38:12;;;;;;;1.45;0.80;;;9.00;69.50;;;;;;5028567;28;20060;-56
2023/01/16 07:40:38;;;;;;;1.58;0.80;;;8.90;69.50;;;;;;5030757;28;20043;-55
2023/01/16 07:43:06;;;;;;;5.78;1.70;;;8.90;69.60;;;;;;5027766;28;20037;-56
2023/01/16 07:45:34;;;;;;;3.05;1.05;;;9.00;69.70;;;;;;5032901;28;20120;-55
2023/01/16 07:48:01;;;;;;;3.70;1.77;;;8.90;69.60;;;;;;5080221;22;20052;-49
2023/01/16 07:50:28;;;;;;;1.80;1.20;;;8.90;69.70;;;;;;5070944;28;20459;-51
2023/01/16 07:52:55;;;;;;;4.68;1.63;;;8.90;69.80;;;;;;5070841;28;20048;-52
2023/01/16 07:55:23;;;;;;;3.17;1.45;;;8.90;69.90;;;;;;5062579;28;20058;-50
2023/01/16 07:57:49;;;;;;;1.40;0.80;;;8.90;69.90;;;;;;5055281;28;20053;-50
2023/01/16 08:00:16;;;;;;;2.47;0.95;;;8.90;70.00;;;;;;5046096;28;20045;-49
2023/01/16 08:02:43;;;;;;;2.92;0.90;;;8.90;70.10;;;;;;5029222;28;20114;-49
2023/01/16 08:05:10;;;;;;;1.25;0.88;;;8.90;70.20;;;;;;5050022;28;20025;-53
2023/01/16 08:07:37;;;;;;;1.60;0.75;;;8.90;70.80;;;;;;5050929;28;20386;-52
2023/01/16 08:10:04;;;;;;;2.10;0.80;;;8.90;70.20;;;;;;5047935;28;20052;-50
2023/01/16 08:12:31;;;;;;;2.22;0.93;;;8.90;70.30;;;;;;5050500;28;20730;-54
2023/01/16 08:14:58;;;;;;;2.40;1.08;;;8.90;70.30;;;;;;5050730;28;20045;-54
2023/01/16 08:17:24;;;;;;;1.17;0.73;;;8.90;70.20;;;;;;5046653;28;20563;-50
2023/01/16 08:19:51;;;;;;;2.70;1.25;;;8.80;70.30;;;;;;5048036;28;20045;-54
2023/01/16 08:22:18;;;;;;;1.15;0.80;;;8.80;70.40;;;;;;5050424;28;20060;-52
2023/01/16 08:24:44;;;;;;;2.17;1.00;;;8.80;70.30;;;;;;5051734;28;20124;-53
2023/01/16 08:27:13;;;;;;;2.55;0.95;;;8.90;70.40;;;;;;5025324;28;20476;-54
2023/01/16 08:29:40;;;;;;;1.15;0.93;;;8.80;70.40;;;;;;5046764;28;20041;-51
2023/01/16 08:32:06;;;;;;;1.55;1.00;;;8.90;70.50;;;;;;5028381;28;20047;-54
2023/01/16 08:34:33;;;;;;;1.02;1.00;;;8.80;70.40;;;;;;5045778;28;20098;-54
2023/01/16 08:37:02;;;;;;;1.10;0.90;;;8.80;70.40;;;;;;5036251;28;20124;-54
2023/01/16 08:39:29;;;;;;;1.08;0.95;;;8.80;70.40;;;;;;5027110;28;20036;-51
2023/01/16 08:53:04;;;;;;;1.23;0.70;;;8.90;70.50;;;;;;5024353;28;20417;-53
2023/01/16 08:55:31;;;;;;;0.63;0.60;;;8.80;70.40;;;;;;5050374;28;20077;-53
2023/01/16 08:57:58;;;;;;;1.42;0.75;;;8.80;70.40;;;;;;5042154;28;20095;-50
2023/01/16 09:00:27;;;;;;;2.13;1.35;;;8.80;70.40;;;;;;5049714;28;20112;-52
2023/01/16 09:02:55;;;;;;;2.85;0.93;;;8.80;70.40;;;;;;5049038;28;20123;-53
2023/01/16 09:05:22;;;;;;;1.90;0.60;;;8.80;70.40;;;;;;5040255;28;20041;-53
2023/01/16 09:07:49;;;;;;;2.25;0.57;;;8.90;70.40;;;;;;5049944;28;20055;-50
2023/01/16 09:10:16;;;;;;;1.13;0.65;;;8.80;70.40;;;;;;5050874;28;20045;-53
2023/01/16 09:15:28;;;;;;;2.30;0.43;;;8.90;70.40;;;;;;5039862;28;20577;-51
2023/01/16 09:17:55;;;;;;;1.67;0.50;;;8.90;70.30;;;;;;5023899;28;20072;-51
2023/01/16 09:20:22;;;;;;;0.60;0.30;;;8.80;70.30;;;;;;5043113;28;20037;-52
2023/01/16 09:22:55;;;;;;;1.00;0.60;;;8.90;70.20;;;;;;5049310;28;20732;-54
2023/01/16 09:25:25;;;;;;;0.95;0.52;;;8.90;70.20;;;;;;5044392;28;20120;-53
2023/01/16 09:27:52;;;;;;;1.85;0.82;;;8.90;70.30;;;;;;5048662;28;20044;-52
2023/01/16 09:30:18;;;;;;;1.52;0.77;;;8.90;70.20;;;;;;5048316;28;20043;-53
2023/01/16 09:32:46;;;;;;;1.35;0.40;;;8.90;70.20;;;;;;5048994;28;20049;-51
2023/01/16 09:35:15;;;;;;;1.55;0.70;;;9.00;70.10;;;;;;5040500;28;20049;-51
2023/01/16 09:37:45;;;;;;;1.38;0.50;;;8.90;70.00;;;;;;5048316;28;20416;-50
2023/01/16 09:40:17;;;;;;;0.30;0.30;;;9.00;69.90;;;;;;5043720;28;20045;-51
2023/01/16 09:45:55;;;;;;;0.38;0.17;;;9.00;69.90;;;;;;5046169;28;20065;-51
2023/01/16 09:48:28;;;;;;;0.55;0.20;;;9.00;69.70;;;;;;5045905;28;20048;-54
2023/01/16 09:51:05;;;;;;;0.65;0.30;;;9.00;69.70;;;;;;5049958;28;20485;-50
2023/01/16 09:59:46;;;;;;;0.60;0.30;;;9.00;69.70;;;;;;5049431;28;20064;-51
2023/01/16 10:02:21;;;;;;;0.32;0.20;;;9.00;69.70;;;;;;5040854;28;20037;-53
2023/01/16 10:04:49;;;;;;;0.57;0.32;;;9.00;69.90;;;;;;5047221;28;20136;-52
2023/01/16 10:07:34;;;;;;;0.32;0.30;;;9.00;69.70;;;;;;5047269;28;20452;-53
2023/01/16 10:10:15;;;;;;;0.98;0.28;;;9.00;69.60;;;;;;5046348;28;20120;-54
2023/01/16 10:12:50;;;;;;;0.28;0.28;;;9.10;69.60;;;;;;5025095;28;20136;-50
2023/01/16 10:15:39;;;;;;;0.57;0.40;;;9.10;69.60;;;;;;5047306;28;20040;-51
2023/01/16 10:18:25;;;;;;;0.45;0.32;;;9.10;69.40;;;;;;5048697;28;20048;-49
2023/01/16 10:21:23;;;;;;;0.65;0.20;;;9.20;69.50;;;;;;5047362;28;20052;-52
2023/01/16 10:24:01;;;;;;;0.32;0.20;;;9.20;69.50;;;;;;5043885;28;20152;-52
2023/01/16 10:26:34;;;;;;;0.40;0.38;;;9.20;69.50;;;;;;5040507;28;20115;-53
2023/01/16 10:29:21;;;;;;;0.10;0.10;;;9.30;69.70;;;;;;5048919;28;20059;-50
2023/01/16 10:32:00;;;;;;;0.40;0.40;;;9.30;69.40;;;;;;5038732;28;20068;-51
2023/01/16 10:34:33;;;;;;;1.02;0.52;;;9.30;69.40;;;;;;5031355;28;20098;-54
2023/01/16 10:37:00;;;;;;;0.60;0.10;;;9.40;69.40;;;;;;5048531;28;20497;-53
2023/01/16 10:39:33;;;;;;;1.25;0.28;;;9.40;69.40;;;;;;5041980;28;20051;-54
2023/01/16 10:50:43;;;;;;;0.13;0.10;;;9.60;68.80;;;;;;5034862;28;20091;-52
2023/01/16 10:53:11;;;;;;;0.25;0.10;;;9.70;68.60;;;;;;5044327;28;20052;-50
2023/01/16 10:55:41;;;;;;;2.60;0.25;;;9.70;68.40;;;;;;5042845;28;20045;-50
2023/01/16 10:58:30;;;;;;;0.10;0.10;;;9.70;68.40;;;;;;5048454;28;20123;-53
2023/01/16 11:01:04;;;;;;;0.85;0.30;;;9.80;68.20;;;;;;5047181;28;20037;-51
2023/01/16 11:03:45;;;;;;;0.40;0.20;;;9.80;68.30;;;;;;5049000;28;20056;-52
2023/01/16 11:06:13;;;;;;;0.10;0.10;;;9.80;68.20;;;;;;5048008;28;20412;-52
2023/01/16 11:08:44;;;;;;;0.30;0.15;;;9.80;68.40;;;;;;5046538;28;20061;-51
2023/01/16 11:19:45;;;;;;;0.50;0.38;;;10.00;67.80;;;;;;5045903;28;20106;-50
2023/01/16 11:22:27;;;;;;;0.68;0.28;;;10.10;67.40;;;;;;5052100;28;20037;-52
2023/01/16 11:25:00;;;;;;;0.57;0.30;;;10.10;67.30;;;;;;5048242;28;20037;-51
2023/01/16 11:27:31;;;;;;;0.57;0.15;;;10.20;67.50;;;;;;5047526;28;20524;-52
2023/01/16 11:30:01;;;;;;;2.05;0.30;;;10.20;67.30;;;;;;5052349;28;20099;-51
2023/01/16 11:32:34;;;;;;;0.30;0.25;;;10.20;67.40;;;;;;5051465;28;20041;-52
2023/01/16 11:35:01;;;;;;;0.38;0.30;;;10.20;67.30;;;;;;5051152;28;20045;-53
2023/01/16 11:37:31;;;;;;;0.20;0.20;;;10.20;67.20;;;;;;5048617;28;20044;-50
2023/01/16 11:40:03;;;;;;;0.10;0.10;;;10.20;67.00;;;;;;5033290;28;20068;-51
2023/01/16 11:48:24;;;;;;;0.20;0.20;;;10.20;66.80;;;;;;5050055;28;20041;-49
2023/01/16 11:50:55;;;;;;;0.13;0.13;;;10.20;67.60;;;;;;5051596;28;20046;-53
2023/01/16 11:53:27;;;;;;;0.50;0.20;;;10.20;67.10;;;;;;5051327;28;20556;-51
2023/01/16 11:56:45;;;;;;;0.22;0.10;;;10.20;67.40;;;;;;5026600;28;20295;-54
2023/01/16 11:59:42;;;;;;;1.75;0.20;;;10.20;67.60;;;;;;5012875;28;20528;-52
2023/01/16 12:02:20;;;;;;;0.35;0.20;;;10.10;67.70;;;;;;5051063;28;20103;-52
2023/01/16 12:08:00;;;;;;;0.50;0.40;;;10.00;67.80;;;;;;5040786;28;20513;-53
2023/01/16 12:10:38;;;;;;;0.60;0.35;;;10.00;68.00;;;;;;5050569;28;20063;-53
2023/01/16 12:15:53;;;;;;;1.38;0.20;;;10.00;68.10;;;;;;5044479;28;20072;-54
2023/01/16 12:18:57;;;;;;;0.20;0.20;;;10.00;68.40;;;;;;5047185;28;20045;-53
2023/01/16 12:21:41;;;;;;;0.73;0.40;;;9.90;68.50;;;;;;5042786;28;20569;-51
2023/01/16 12:24:17;;;;;;;1.17;0.43;;;10.00;68.70;;;;;;5046594;28;20430;-53
2023/01/16 12:27:06;;;;;;;0.30;0.30;;;9.90;68.80;;;;;;5032231;28;20049;-50
2023/01/16 12:29:56;;;;;;;0.32;0.32;;;9.90;68.70;;;;;;5050447;28;20043;-54
2023/01/16 12:32:51;;;;;;;1.52;0.50;;;9.90;68.80;;;;;;5043927;28;20120;-54
2023/01/16 12:35:41;;;;;;;0.60;0.45;;;9.90;69.10;;;;;;5048357;28;20059;-51
2023/01/16 12:38:46;;;;;;;1.55;0.40;;;9.90;69.00;;;;;;5025895;28;20436;-49
2023/01/16 12:44:32;;;;;;;0.77;0.32;;;9.90;69.00;;;;;;4954283;28;20074;-54
2023/01/16 12:47:17;;;;;;;0.63;0.40;;;9.90;69.20;;;;;;5032611;28;20067;-54
2023/01/16 12:50:28;;;;;;;1.25;0.30;;;9.90;69.20;;;;;;5044858;28;20067;-53
2023/01/16 12:53:24;;;;;;;1.00;0.35;;;9.90;69.40;;;;;;5031853;28;20053;-54
2023/01/16 12:56:32;;;;;;;1.17;0.40;;;9.90;69.40;;;;;;5045711;28;20550;-55
2023/01/16 12:59:06;;;;;;;1.05;0.40;;;10.00;69.70;;;;;;5046392;28;20507;-49
2023/01/16 13:01:40;;;;;;;0.90;0.22;;;10.00;69.20;;;;;;5039306;28;20041;-55
2023/01/16 13:04:36;;;;;;;0.63;0.32;;;10.00;69.00;;;;;;5051072;28;20052;-54
2023/01/16 13:07:06;;;;;;;0.77;0.40;;;10.00;69.00;;;;;;5043950;28;20132;-55
2023/01/16 13:09:37;;;;;;;0.65;0.50;;;10.00;68.90;;;;;;5050216;28;20049;-53
2023/01/16 13:15:20;;;;;;;0.40;0.30;;;10.10;68.70;;;;;;5047540;28;20055;-54
2023/01/16 13:17:56;;;;;;;0.85;0.60;;;10.10;68.80;;;;;;5039295;28;20168;-51
2023/01/16 13:20:25;;;;;;;0.35;0.22;;;10.10;68.50;;;;;;5040081;28;20041;-54
2023/01/16 13:23:13;;;;;;;0.10;0.10;;;10.00;68.20;;;;;;5049583;28;20051;-53
2023/01/16 13:25:47;;;;;;;0.13;0.10;;;10.10;67.60;;;;;;5042146;28;20043;-52
2023/01/16 13:28:34;;;;;;;0.20;0.10;;;10.10;67.90;;;;;;5046355;28;20124;-51
2023/01/16 13:31:07;;;;;;;1.30;0.20;;;10.10;68.10;;;;;;5050111;28;20044;-54
2023/01/16 13:33:40;;;;;;;0.40;0.30;;;10.10;68.30;;;;;;5049226;28;20067;-54
2023/01/16 13:36:16;;;;;;;0.22;0.20;;;10.10;68.30;;;;;;5044949;28;20095;-53
2023/01/16 13:38:58;;;;;;;0.68;0.20;;;10.20;68.20;;;;;;5036941;28;20094;-54
2023/01/16 13:41:28;;;;;;;0.28;0.20;;;10.20;68.10;;;;;;5043122;28;20051;-55
2023/01/16 13:47:04;;;;;;;0.43;0.43;;;10.20;67.80;;;;;;5039948;28;20378;-52
2023/01/16 13:49:31;;;;;;;0.35;0.20;;;10.20;67.70;;;;;;5043357;28;20120;-53
2023/01/16 13:52:02;;;;;;;0.20;0.20;;;10.20;67.80;;;;;;5039853;28;20037;-53
2023/01/16 13:54:36;;;;;;;0.10;0.10;;;10.20;67.80;;;;;;5029713;28;20115;-53
2023/01/16 13:57:14;;;;;;;0.22;0.20;;;10.20;67.80;;;;;;5035973;28;20034;-51
2023/01/16 13:59:44;;;;;;;5.57;0.40;;;10.10;68.00;;;;;;5036402;28;20044;-55
2023/01/16 14:02:26;;;;;;;0.40;0.20;;;10.10;68.20;;;;;;5043973;28;20405;-54
2023/01/16 14:05:04;;;;;;;1.70;0.80;;;10.10;68.50;;;;;;5048860;22;20090;-49
2023/01/16 14:10:42;;;;;;;4.30;2.17;;;10.10;68.90;;;;;;5024768;28;20042;-51
2023/01/16 14:13:14;;;;;;;1.08;0.65;;;10.00;68.70;;;;;;5030541;28;20053;-51
2023/01/16 14:18:59;;;;;;;0.50;0.43;;;10.00;68.90;;;;;;5027639;28;19964;-53
2023/01/16 14:21:37;;;;;;;0.20;0.20;;;10.00;68.80;;;;;;5030164;28;20116;-49
2023/01/16 14:24:13;;;;;;;0.20;0.20;;;9.90;69.00;;;;;;5030013;28;20052;-50
2023/01/16 14:26:57;;;;;;;2.28;0.30;;;9.90;69.30;;;;;;5025952;28;20686;-52
2023/01/16 14:29:28;;;;;;;1.45;0.60;;;9.90;69.70;;;;;;5012665;28;20065;-52
2023/01/16 14:32:16;;;;;;;0.40;0.40;;;9.90;69.90;;;;;;5027636;28;20080;-52
2023/01/16 14:34:53;;;;;;;0.90;0.30;;;9.90;70.10;;;;;;5028206;28;20120;-48
2023/01/16 14:37:42;;;;;;;1.35;0.20;;;9.90;70.20;;;;;;5030192;28;20049;-50
2023/01/16 14:40:09;;;;;;;2.72;0.50;;;9.80;70.00;;;;;;5022805;28;20083;-51
2023/01/16 14:57:15;;;;;;;0.20;0.20;;;9.80;70.40;;;;;;5028191;28;20045;-52
2023/01/16 14:59:57;;;;;;;0.35;0.30;;;9.70;70.30;;;;;;5029090;28;20497;-48